Time;durP1;ratioP1;P1;durP2;ratioP2;P2;SDS_P1;SDS_P2;PMS_P1;PMS_P2;Temp;Humidity;BMP_temperature;BMP_pressure;BME280_temperature;BME280_humidity;BME280_pressure;Samples;Min_cycle;Max_cycle;Signal;HPM_P1;HPM_P2
2022/11/10 00:00:01;;;;;;;9.80;7.30;;;14.10;99.90;;;;;;5027143;28;20227;-69
2022/11/10 00:02:27;;;;;;;9.03;6.50;;;14.00;99.90;;;;;;5029490;28;20527;-70
2022/11/10 00:04:52;;;;;;;8.63;6.90;;;14.00;99.90;;;;;;5030326;28;20187;-67
2022/11/10 00:07:18;;;;;;;9.03;5.63;;;14.00;99.90;;;;;;5027697;28;20231;-68
2022/11/10 00:09:43;;;;;;;15.93;6.23;;;13.90;99.90;;;;;;5026992;28;20270;-70
2022/11/10 00:12:09;;;;;;;7.70;5.97;;;14.00;99.90;;;;;;5030940;28;20223;-70
2022/11/10 00:17:18;;;;;;;7.10;5.27;;;14.00;99.90;;;;;;5026165;28;20199;-69
2022/11/10 00:19:44;;;;;;;11.30;5.50;;;14.00;99.90;;;;;;5028641;28;20428;-69
2022/11/10 00:22:09;;;;;;;9.80;5.30;;;14.00;99.90;;;;;;5030108;28;20293;-68
2022/11/10 00:24:35;;;;;;;11.90;5.47;;;14.00;99.90;;;;;;5028193;28;20395;-69
2022/11/10 00:27:01;;;;;;;9.90;5.13;;;14.00;99.90;;;;;;5028700;28;20184;-68
2022/11/10 00:29:26;;;;;;;9.23;5.17;;;14.00;99.90;;;;;;5028083;28;20253;-69
2022/11/10 00:31:52;;;;;;;8.00;4.77;;;14.00;99.90;;;;;;5029365;28;20574;-69
2022/11/10 00:34:17;;;;;;;6.53;5.20;;;14.10;99.90;;;;;;5027276;28;20199;-69
2022/11/10 00:36:43;;;;;;;11.63;5.60;;;14.10;99.90;;;;;;5026697;28;20188;-70
2022/11/10 00:39:10;;;;;;;11.10;5.17;;;14.10;99.90;;;;;;5026106;28;20219;-68
2022/11/10 00:41:35;;;;;;;8.30;4.77;;;14.10;99.90;;;;;;5027290;28;20623;-69
2022/11/10 00:44:01;;;;;;;7.47;4.70;;;14.00;99.90;;;;;;5027403;28;20548;-70
2022/11/10 00:46:26;;;;;;;5.27;4.60;;;14.00;99.90;;;;;;5028777;28;20177;-68
2022/11/10 00:48:52;;;;;;;9.10;4.67;;;14.00;99.90;;;;;;5028644;28;20622;-70
2022/11/10 00:51:26;;;;;;;8.93;4.40;;;14.00;99.90;;;;;;5030236;28;20255;-69
2022/11/10 00:53:52;;;;;;;8.70;4.90;;;13.90;99.90;;;;;;5028462;28;20188;-68
2022/11/10 00:56:19;;;;;;;10.40;4.17;;;13.90;99.90;;;;;;5028312;28;20872;-69
2022/11/10 00:58:45;;;;;;;7.93;4.37;;;13.80;99.90;;;;;;5027556;28;20439;-69
2022/11/10 01:01:11;;;;;;;8.93;5.23;;;13.80;99.90;;;;;;5025967;28;20489;-70
2022/11/10 01:03:37;;;;;;;9.83;4.90;;;13.80;99.90;;;;;;5025987;28;20508;-68
2022/11/10 01:06:11;;;;;;;8.17;4.80;;;13.80;99.90;;;;;;5027718;28;20439;-68
2022/11/10 01:08:38;;;;;;;8.63;5.00;;;13.70;99.90;;;;;;5024789;28;20415;-68
2022/11/10 01:11:13;;;;;;;12.67;4.80;;;13.70;99.90;;;;;;5027953;28;20477;-68
2022/11/10 01:13:39;;;;;;;8.70;4.37;;;13.70;99.90;;;;;;5027275;28;20434;-68
2022/11/10 01:16:07;;;;;;;9.67;4.30;;;13.70;99.90;;;;;;5028623;28;20467;-67
2022/11/10 01:18:33;;;;;;;11.80;4.90;;;13.70;99.90;;;;;;5023730;28;20549;-68
2022/11/10 01:20:59;;;;;;;7.67;5.00;;;13.60;99.90;;;;;;5027646;28;20490;-68
2022/11/10 01:23:24;;;;;;;10.27;4.90;;;13.60;99.90;;;;;;5027783;28;20935;-68
2022/11/10 01:25:50;;;;;;;11.27;4.80;;;13.50;99.90;;;;;;5026128;28;20227;-68
2022/11/10 01:28:15;;;;;;;7.03;5.13;;;13.50;99.90;;;;;;5028009;28;20203;-68
2022/11/10 01:30:41;;;;;;;6.93;4.57;;;13.50;99.90;;;;;;5028727;28;20227;-68
2022/11/10 01:33:07;;;;;;;11.60;5.63;;;13.50;99.90;;;;;;5026441;28;20271;-68
2022/11/10 01:35:33;;;;;;;7.67;5.70;;;13.50;99.90;;;;;;5025892;28;20257;-68
2022/11/10 01:37:59;;;;;;;8.03;5.20;;;13.50;99.90;;;;;;5026512;28;20501;-70
2022/11/10 01:40:25;;;;;;;9.30;4.97;;;13.50;99.90;;;;;;5028143;28;20463;-70
2022/11/10 01:42:53;;;;;;;6.87;4.67;;;13.50;99.90;;;;;;5025110;28;20661;-69
2022/11/10 01:45:19;;;;;;;5.70;5.00;;;13.50;99.90;;;;;;5027640;28;20473;-69
2022/11/10 01:47:45;;;;;;;7.03;5.23;;;13.50;99.90;;;;;;5025519;28;20439;-69
2022/11/10 01:50:10;;;;;;;6.73;4.77;;;13.40;99.90;;;;;;5026534;28;20548;-68
2022/11/10 01:52:36;;;;;;;10.77;4.93;;;13.30;99.90;;;;;;5028117;28;20192;-69
2022/11/10 01:55:02;;;;;;;7.50;4.90;;;13.30;99.90;;;;;;5026446;28;20208;-68
2022/11/10 01:57:27;;;;;;;12.17;4.73;;;13.20;99.90;;;;;;5026247;28;20235;-70
2022/11/10 01:59:53;;;;;;;10.90;4.80;;;13.20;99.90;;;;;;5027703;28;20259;-70
2022/11/10 02:02:33;;;;;;;14.13;5.90;;;13.20;99.90;;;;;;5026550;28;20289;-70
2022/11/10 02:05:02;;;;;;;7.67;4.80;;;13.20;99.90;;;;;;5025915;28;20192;-69
2022/11/10 02:07:29;;;;;;;9.33;4.37;;;13.10;99.90;;;;;;5025381;28;20442;-68
2022/11/10 02:09:55;;;;;;;11.13;4.83;;;13.20;99.90;;;;;;5026523;28;20426;-67
2022/11/10 02:12:35;;;;;;;8.80;4.43;;;13.10;99.90;;;;;;5028721;28;20458;-68
2022/11/10 02:15:02;;;;;;;15.87;5.23;;;13.10;99.90;;;;;;5024612;28;20205;-69
2022/11/10 02:17:28;;;;;;;6.20;4.60;;;13.10;99.90;;;;;;5027085;28;20426;-68
2022/11/10 02:19:57;;;;;;;8.10;4.40;;;13.00;99.90;;;;;;5023348;28;20439;-68
2022/11/10 02:22:23;;;;;;;6.97;4.77;;;13.00;99.90;;;;;;5027290;28;20281;-68
2022/11/10 02:24:49;;;;;;;7.03;5.00;;;13.00;99.90;;;;;;5026399;28;20442;-68
2022/11/10 02:27:14;;;;;;;5.20;4.30;;;13.00;99.90;;;;;;5026423;28;20188;-70
2022/11/10 02:29:40;;;;;;;12.57;4.70;;;12.90;99.90;;;;;;5025274;28;20199;-69
2022/11/10 02:32:05;;;;;;;7.40;4.10;;;12.90;99.90;;;;;;5023934;28;20286;-69
2022/11/10 02:34:31;;;;;;;5.93;4.20;;;12.80;99.90;;;;;;5024151;28;20195;-69
2022/11/10 02:36:56;;;;;;;9.20;5.63;;;12.80;99.90;;;;;;5024528;28;20287;-68
2022/11/10 02:39:22;;;;;;;6.47;4.27;;;12.70;99.90;;;;;;5024841;28;20630;-69
2022/11/10 02:41:47;;;;;;;12.40;5.10;;;12.70;99.90;;;;;;5027437;28;20204;-69
2022/11/10 02:44:13;;;;;;;6.63;4.90;;;12.70;99.90;;;;;;5025824;28;20249;-69
2022/11/10 02:46:39;;;;;;;5.87;4.40;;;12.70;99.90;;;;;;5026203;28;20202;-69
2022/11/10 02:49:04;;;;;;;8.57;5.50;;;12.60;99.90;;;;;;5025465;28;20756;-69
2022/11/10 02:51:30;;;;;;;11.30;5.43;;;12.70;99.90;;;;;;5028774;28;20959;-69
2022/11/10 02:53:55;;;;;;;12.73;6.10;;;12.70;99.90;;;;;;5029344;28;20576;-69
2022/11/10 02:56:21;;;;;;;11.13;4.50;;;12.60;99.90;;;;;;5025543;28;20212;-68
2022/11/10 02:58:46;;;;;;;8.10;4.67;;;12.60;99.90;;;;;;5027101;28;20204;-69
2022/11/10 03:01:12;;;;;;;5.97;4.13;;;12.60;99.90;;;;;;5025158;28;20261;-69
2022/11/10 03:03:37;;;;;;;9.50;4.80;;;12.60;99.90;;;;;;5026399;28;20219;-69
2022/11/10 03:06:03;;;;;;;9.47;5.03;;;12.60;99.90;;;;;;5024965;28;20184;-69
2022/11/10 03:08:29;;;;;;;7.27;4.13;;;12.60;99.90;;;;;;5025379;28;20200;-69
2022/11/10 03:10:55;;;;;;;9.40;4.53;;;12.50;99.90;;;;;;5026910;28;20205;-69
2022/11/10 03:13:23;;;;;;;8.07;4.60;;;12.50;99.90;;;;;;5025577;28;20188;-69
2022/11/10 03:15:48;;;;;;;16.90;5.47;;;12.50;99.90;;;;;;5025265;28;20565;-68
2022/11/10 03:18:14;;;;;;;15.63;5.13;;;12.50;99.90;;;;;;5025657;28;20514;-69
2022/11/10 03:20:40;;;;;;;7.07;4.27;;;12.50;99.90;;;;;;5023902;28;20289;-69
2022/11/10 03:23:06;;;;;;;9.27;4.40;;;12.50;99.90;;;;;;5024765;28;20806;-69
2022/11/10 03:25:33;;;;;;;8.47;4.10;;;12.40;99.90;;;;;;5022157;28;20176;-69
2022/11/10 03:27:58;;;;;;;9.80;4.70;;;12.40;99.90;;;;;;5028629;28;20419;-69
2022/11/10 03:30:24;;;;;;;6.37;4.17;;;12.40;99.90;;;;;;5026435;28;20438;-69
2022/11/10 03:32:50;;;;;;;12.50;4.40;;;12.50;99.90;;;;;;5029210;28;20184;-70
2022/11/10 03:35:15;;;;;;;8.53;4.70;;;12.50;99.90;;;;;;5028009;28;20220;-68
2022/11/10 03:37:41;;;;;;;7.87;4.57;;;12.40;99.90;;;;;;5030040;28;20181;-67
2022/11/10 03:40:08;;;;;;;8.80;4.77;;;12.40;99.90;;;;;;5027928;28;20200;-69
2022/11/10 03:42:33;;;;;;;8.33;5.20;;;12.40;99.90;;;;;;5029394;28;20469;-69
2022/11/10 03:44:59;;;;;;;6.57;4.70;;;12.40;99.90;;;;;;5026460;28;20438;-69
2022/11/10 03:47:24;;;;;;;7.90;4.30;;;12.50;99.90;;;;;;5029230;28;20188;-69
2022/11/10 03:49:50;;;;;;;14.17;5.00;;;12.40;99.90;;;;;;5028788;28;20847;-69
2022/11/10 03:52:15;;;;;;;7.90;4.83;;;12.40;99.90;;;;;;5028681;28;20255;-69
2022/11/10 03:54:41;;;;;;;6.00;5.10;;;12.30;99.90;;;;;;5027321;28;20201;-69
2022/11/10 03:57:07;;;;;;;12.17;4.10;;;12.40;99.90;;;;;;5028222;28;20177;-69
2022/11/10 03:59:32;;;;;;;7.47;4.10;;;12.30;99.90;;;;;;5030917;28;20180;-69
2022/11/10 04:01:58;;;;;;;10.90;4.30;;;12.30;99.90;;;;;;5029989;28;20283;-69
2022/11/10 04:09:56;;;;;;;7.60;5.00;;;12.20;99.90;;;;;;5029456;28;20561;-69
2022/11/10 04:17:51;;;;;;;8.93;4.27;;;12.30;99.90;;;;;;5029547;28;20909;-68
2022/11/10 04:20:17;;;;;;;10.03;4.63;;;12.30;99.90;;;;;;5027378;28;20430;-70
2022/11/10 04:25:27;;;;;;;10.57;4.70;;;12.30;99.90;;;;;;5026749;28;20236;-70
2022/11/10 04:27:52;;;;;;;15.90;4.80;;;12.20;99.90;;;;;;5025508;28;20419;-69
2022/11/10 04:30:18;;;;;;;15.80;4.87;;;12.20;99.90;;;;;;5026401;28;20185;-69
2022/11/10 04:32:44;;;;;;;13.10;4.50;;;12.20;99.90;;;;;;5026516;28;20216;-69
2022/11/10 04:35:09;;;;;;;16.33;5.00;;;12.10;99.90;;;;;;5028639;28;20236;-70
2022/11/10 04:37:35;;;;;;;15.97;4.57;;;12.10;99.90;;;;;;5027294;28;20453;-70
2022/11/10 04:40:01;;;;;;;9.20;4.03;;;12.10;99.90;;;;;;5028459;28;20204;-70
2022/11/10 04:42:26;;;;;;;12.63;4.90;;;12.20;99.90;;;;;;5027976;28;20714;-70
2022/11/10 04:44:52;;;;;;;9.07;4.30;;;12.20;99.90;;;;;;5028695;28;20212;-69
2022/11/10 04:47:17;;;;;;;9.03;4.57;;;12.20;99.90;;;;;;5025814;28;20211;-69
2022/11/10 04:49:43;;;;;;;7.33;4.50;;;12.10;99.90;;;;;;5026705;28;20202;-69
2022/11/10 04:52:08;;;;;;;5.50;4.20;;;12.10;99.90;;;;;;5026710;28;20208;-69
2022/11/10 04:54:34;;;;;;;8.43;4.73;;;12.00;99.90;;;;;;5027547;28;20184;-69
2022/11/10 04:56:59;;;;;;;9.10;4.50;;;12.00;99.90;;;;;;5026554;28;20189;-70
2022/11/10 04:59:25;;;;;;;9.97;4.80;;;12.00;99.90;;;;;;5029127;28;20177;-69
2022/11/10 05:01:50;;;;;;;12.00;5.10;;;12.00;99.90;;;;;;5028310;28;20254;-70
2022/11/10 05:04:16;;;;;;;9.73;4.73;;;12.00;99.90;;;;;;5027813;28;20304;-69
2022/11/10 05:06:41;;;;;;;7.70;4.70;;;12.00;99.90;;;;;;5027007;28;20193;-69
2022/11/10 05:09:07;;;;;;;8.13;4.73;;;11.90;99.90;;;;;;5027110;28;20177;-70
2022/11/10 05:11:32;;;;;;;9.90;5.13;;;12.00;99.90;;;;;;5026863;28;20228;-70
2022/11/10 05:13:58;;;;;;;10.20;5.80;;;11.90;99.90;;;;;;5029944;28;20192;-69
2022/11/10 05:16:23;;;;;;;10.23;5.30;;;11.90;99.90;;;;;;5028954;28;20291;-69
2022/11/10 05:18:53;;;;;;;7.47;5.50;;;11.90;99.90;;;;;;5027137;28;20205;-71
2022/11/10 05:21:19;;;;;;;11.03;5.77;;;12.00;99.90;;;;;;5026235;28;20208;-69
2022/11/10 05:23:45;;;;;;;8.20;4.77;;;12.00;99.90;;;;;;5027433;28;20432;-69
2022/11/10 05:26:15;;;;;;;7.63;5.17;;;12.00;99.90;;;;;;5027025;28;20426;-67
2022/11/10 05:28:43;;;;;;;11.23;6.77;;;12.00;99.90;;;;;;5027935;28;20445;-68
2022/11/10 05:31:10;;;;;;;7.90;5.00;;;12.00;99.90;;;;;;5029964;28;20482;-70
2022/11/10 05:33:36;;;;;;;8.90;4.83;;;12.00;99.90;;;;;;5030548;28;20952;-69
2022/11/10 05:36:03;;;;;;;8.17;4.47;;;12.00;99.90;;;;;;5029085;28;20462;-69
2022/11/10 05:38:29;;;;;;;13.47;5.83;;;12.00;99.90;;;;;;5024777;28;20916;-69
2022/11/10 05:40:54;;;;;;;7.57;5.10;;;12.00;99.90;;;;;;5028400;28;20453;-70
2022/11/10 05:43:20;;;;;;;6.73;4.60;;;12.00;99.90;;;;;;5025830;28;20689;-70
2022/11/10 05:45:46;;;;;;;6.87;4.70;;;12.00;99.90;;;;;;5024279;28;20184;-70
2022/11/10 05:48:11;;;;;;;8.70;4.20;;;12.00;99.90;;;;;;5025799;28;20278;-69
2022/11/10 05:50:37;;;;;;;17.73;4.80;;;12.00;99.90;;;;;;5025910;28;20215;-69
2022/11/10 05:53:02;;;;;;;8.90;5.03;;;11.90;99.90;;;;;;5028282;28;20240;-68
2022/11/10 05:55:28;;;;;;;9.80;4.63;;;12.00;99.90;;;;;;5027660;28;20212;-69
2022/11/10 05:57:56;;;;;;;10.57;5.00;;;11.90;99.90;;;;;;5028432;28;20220;-70
2022/11/10 06:00:24;;;;;;;14.43;5.30;;;11.90;99.90;;;;;;5031053;28;20934;-68
2022/11/10 06:03:17;;;;;;;10.13;6.13;;;12.00;99.90;;;;;;5028003;28;20873;-70
2022/11/10 06:05:43;;;;;;;13.33;5.47;;;12.00;99.90;;;;;;5021586;28;20795;-69
2022/11/10 06:08:09;;;;;;;7.20;4.60;;;12.00;99.90;;;;;;5024994;28;20440;-69
2022/11/10 06:10:38;;;;;;;9.50;4.77;;;11.90;99.90;;;;;;5026839;28;20945;-69
2022/11/10 06:13:04;;;;;;;14.30;5.47;;;12.00;99.90;;;;;;5027369;28;20192;-70
2022/11/10 06:15:30;;;;;;;14.03;5.47;;;12.00;99.90;;;;;;5026141;28;20475;-68
2022/11/10 06:17:56;;;;;;;12.70;4.90;;;12.00;99.90;;;;;;5026455;28;20279;-69
2022/11/10 06:20:23;;;;;;;10.60;5.93;;;12.00;99.90;;;;;;5023137;28;20187;-71
2022/11/10 06:23:00;;;;;;;8.77;5.50;;;12.00;99.90;;;;;;5025477;28;20489;-69
2022/11/10 06:25:28;;;;;;;7.03;5.50;;;12.00;99.90;;;;;;5025141;28;20501;-70
2022/11/10 06:27:54;;;;;;;9.67;5.50;;;12.00;99.90;;;;;;5023813;28;20427;-70
2022/11/10 06:30:20;;;;;;;10.93;5.17;;;12.00;99.90;;;;;;5024250;28;20447;-70
2022/11/10 06:32:45;;;;;;;9.93;5.30;;;12.00;99.90;;;;;;5021105;28;20192;-71
2022/11/10 06:35:11;;;;;;;10.83;5.43;;;12.00;99.90;;;;;;5026556;28;20212;-69
2022/11/10 06:37:38;;;;;;;12.60;5.90;;;12.00;99.90;;;;;;5027132;28;20180;-70
2022/11/10 06:40:05;;;;;;;5.60;5.00;;;12.00;99.90;;;;;;5025252;28;20522;-69
2022/11/10 06:42:31;;;;;;;12.17;6.07;;;12.00;99.90;;;;;;5024295;28;20460;-69
2022/11/10 06:44:57;;;;;;;8.13;5.17;;;12.00;99.90;;;;;;5023467;28;21071;-70
2022/11/10 06:47:22;;;;;;;8.60;5.53;;;12.00;99.90;;;;;;5023463;28;20195;-70
2022/11/10 06:49:48;;;;;;;10.50;5.53;;;12.00;99.90;;;;;;5026131;28;20261;-68
2022/11/10 06:52:13;;;;;;;9.70;5.47;;;12.00;99.90;;;;;;5028144;28;20208;-69
2022/11/10 06:54:39;;;;;;;9.87;6.47;;;12.00;99.90;;;;;;5025976;28;20196;-69
2022/11/10 06:57:04;;;;;;;7.60;5.33;;;12.00;99.90;;;;;;5023561;28;20366;-70
2022/11/10 06:59:30;;;;;;;11.17;5.63;;;11.90;99.90;;;;;;5023147;28;20555;-71
2022/11/10 07:01:55;;;;;;;7.73;5.60;;;11.90;99.90;;;;;;5025578;28;20250;-71
2022/11/10 07:04:21;;;;;;;9.50;5.40;;;12.00;99.90;;;;;;5026217;28;20199;-68
2022/11/10 07:06:47;;;;;;;11.90;5.30;;;12.10;99.90;;;;;;5026778;28;20638;-69
2022/11/10 07:09:13;;;;;;;13.67;6.67;;;12.10;99.90;;;;;;5026182;28;20569;-70
2022/11/10 07:11:39;;;;;;;9.03;5.80;;;12.00;99.90;;;;;;5027425;28;20465;-69
2022/11/10 07:14:05;;;;;;;13.00;6.40;;;12.00;99.90;;;;;;5022857;28;20455;-68
2022/11/10 07:16:30;;;;;;;16.23;7.43;;;12.00;99.90;;;;;;5027344;28;20269;-68
2022/11/10 07:18:56;;;;;;;10.07;5.97;;;11.90;99.90;;;;;;5024730;28;20180;-69
2022/11/10 07:21:21;;;;;;;12.37;6.33;;;11.90;99.90;;;;;;5026250;28;20434;-70
2022/11/10 07:23:47;;;;;;;10.57;6.60;;;11.90;99.90;;;;;;5025168;28;20180;-69
2022/11/10 07:26:12;;;;;;;10.57;9.23;;;12.00;99.90;;;;;;5025534;28;20184;-70
2022/11/10 07:28:38;;;;;;;11.53;7.40;;;11.90;99.90;;;;;;5025550;28;20218;-69
2022/11/10 07:31:04;;;;;;;10.87;8.30;;;11.80;99.90;;;;;;5027453;28;20220;-70
2022/11/10 07:33:29;;;;;;;14.03;7.77;;;11.80;99.90;;;;;;5022948;28;20189;-70
2022/11/10 07:35:57;;;;;;;14.23;7.20;;;11.90;99.90;;;;;;5025323;28;20204;-69
2022/11/10 07:38:23;;;;;;;13.50;6.67;;;11.90;99.90;;;;;;5024605;28;20176;-69
2022/11/10 07:40:52;;;;;;;15.70;6.70;;;11.90;99.90;;;;;;5022733;28;20564;-69
2022/11/10 07:43:23;;;;;;;12.20;6.40;;;11.90;99.90;;;;;;5025550;28;20512;-70
2022/11/10 07:45:49;;;;;;;12.20;6.73;;;12.00;99.90;;;;;;5024597;28;20443;-69
2022/11/10 07:48:15;;;;;;;16.83;6.70;;;12.00;99.90;;;;;;5023144;28;20442;-69
2022/11/10 07:50:41;;;;;;;10.60;6.57;;;12.10;99.90;;;;;;5023995;28;20455;-68
2022/11/10 07:53:18;;;;;;;8.47;6.43;;;12.00;99.90;;;;;;5026912;28;20756;-68
2022/11/10 07:55:44;;;;;;;13.00;5.70;;;12.10;99.90;;;;;;5031687;28;20311;-69
2022/11/10 07:58:12;;;;;;;8.90;6.33;;;12.10;99.90;;;;;;5022689;28;20470;-70
2022/11/10 08:00:38;;;;;;;10.93;6.83;;;12.10;99.90;;;;;;5026902;28;20442;-69
2022/11/10 08:03:18;;;;;;;9.13;7.00;;;12.00;99.90;;;;;;5023241;28;20416;-69
2022/11/10 08:05:44;;;;;;;9.53;6.13;;;12.00;99.90;;;;;;5023781;28;20200;-69
2022/11/10 08:08:10;;;;;;;10.53;6.40;;;12.10;99.90;;;;;;5028245;28;20780;-69
2022/11/10 08:10:37;;;;;;;11.90;7.13;;;12.10;99.90;;;;;;5027762;28;20582;-69
2022/11/10 08:13:05;;;;;;;9.00;6.73;;;12.10;99.90;;;;;;5031727;28;20438;-70
2022/11/10 08:15:32;;;;;;;14.60;6.70;;;12.10;99.90;;;;;;5029730;28;20454;-68
2022/11/10 08:18:25;;;;;;;13.20;6.70;;;12.10;99.90;;;;;;5028518;28;20442;-70
2022/11/10 08:20:51;;;;;;;10.43;7.60;;;12.10;99.90;;;;;;5027418;28;20459;-69
2022/11/10 08:23:17;;;;;;;14.83;6.67;;;12.10;99.90;;;;;;5029315;28;20491;-69
2022/11/10 08:25:43;;;;;;;13.73;7.30;;;12.20;99.90;;;;;;5029331;28;20189;-70
2022/11/10 08:28:14;;;;;;;11.37;6.57;;;12.20;99.90;;;;;;5027130;28;20575;-70
2022/11/10 08:30:41;;;;;;;11.20;6.67;;;12.30;99.90;;;;;;5029248;28;20997;-69
2022/11/10 08:33:08;;;;;;;9.50;6.70;;;12.50;99.90;;;;;;5027909;28;20451;-69
2022/11/10 08:35:37;;;;;;;12.57;7.03;;;12.50;99.90;;;;;;5026765;28;20466;-70
2022/11/10 08:38:10;;;;;;;7.80;6.40;;;12.50;99.90;;;;;;5026805;28;20423;-69
2022/11/10 08:40:36;;;;;;;12.80;6.10;;;12.50;99.90;;;;;;5025805;28;20519;-68
2022/11/10 08:43:03;;;;;;;12.10;6.60;;;12.60;99.90;;;;;;5024321;28;20489;-70
2022/11/10 08:45:28;;;;;;;8.60;6.10;;;12.60;99.90;;;;;;5026755;28;20540;-70
2022/11/10 08:48:02;;;;;;;11.50;7.40;;;12.60;99.90;;;;;;5024403;28;20443;-70
2022/11/10 08:50:28;;;;;;;13.77;6.50;;;12.80;99.90;;;;;;5025127;28;20234;-69
2022/11/10 08:52:54;;;;;;;7.20;6.50;;;12.80;99.90;;;;;;5028327;28;20427;-68
2022/11/10 08:55:20;;;;;;;11.90;6.80;;;12.90;99.90;;;;;;5026940;28;20599;-69
2022/11/10 08:57:47;;;;;;;9.50;6.37;;;12.90;99.90;;;;;;5028666;28;20185;-69
2022/11/10 09:00:14;;;;;;;9.90;6.07;;;12.90;99.90;;;;;;5026668;28;20420;-70
2022/11/10 09:02:39;;;;;;;14.03;6.10;;;13.00;99.90;;;;;;5028221;28;20411;-68
2022/11/10 09:05:05;;;;;;;8.70;6.53;;;12.90;99.90;;;;;;5026520;28;20442;-69
2022/11/10 09:07:32;;;;;;;10.00;6.70;;;13.00;99.90;;;;;;5028798;28;20455;-69
2022/11/10 09:10:01;;;;;;;10.40;6.50;;;13.00;99.90;;;;;;5027916;28;20455;-69
2022/11/10 09:12:26;;;;;;;11.50;6.90;;;13.10;99.90;;;;;;5027036;28;20451;-69
2022/11/10 09:14:52;;;;;;;16.00;8.30;;;13.00;99.90;;;;;;5025904;28;20459;-70
2022/11/10 09:17:17;;;;;;;15.90;7.90;;;13.20;99.90;;;;;;5023647;28;20659;-70
2022/11/10 09:19:43;;;;;;;9.43;7.20;;;13.10;99.90;;;;;;5027205;28;20562;-70
2022/11/10 09:22:08;;;;;;;12.90;7.30;;;13.20;99.90;;;;;;5026985;28;20644;-69
2022/11/10 09:24:34;;;;;;;9.47;6.63;;;13.20;99.90;;;;;;5027615;28;20711;-69
2022/11/10 09:27:02;;;;;;;8.10;6.40;;;13.20;99.90;;;;;;5027855;28;20700;-69
2022/11/10 09:29:27;;;;;;;11.67;7.03;;;13.30;99.90;;;;;;5026508;28;20188;-69
2022/11/10 09:31:53;;;;;;;9.77;6.47;;;13.30;99.90;;;;;;5026612;28;20858;-68
2022/11/10 09:34:19;;;;;;;9.40;6.73;;;13.40;99.90;;;;;;5026043;28;20185;-68
2022/11/10 09:36:45;;;;;;;12.00;6.93;;;13.40;99.90;;;;;;5025912;28;20228;-69
2022/11/10 09:39:11;;;;;;;16.13;7.03;;;13.50;99.90;;;;;;5026052;28;20449;-69
2022/11/10 09:41:41;;;;;;;10.30;6.57;;;13.70;99.90;;;;;;5025694;28;20200;-69
2022/11/10 09:44:16;;;;;;;9.80;6.70;;;13.70;99.90;;;;;;5026121;28;20263;-68
2022/11/10 09:46:50;;;;;;;9.93;5.97;;;13.80;99.90;;;;;;5024193;28;20816;-69
2022/11/10 09:49:43;;;;;;;11.90;7.60;;;13.80;99.90;;;;;;5024442;28;20419;-68
2022/11/10 09:52:11;;;;;;;8.37;6.77;;;13.80;99.90;;;;;;5025314;28;20475;-70
2022/11/10 09:54:50;;;;;;;10.27;5.83;;;13.90;99.90;;;;;;5026952;28;20806;-69
2022/11/10 09:57:20;;;;;;;7.63;6.83;;;13.90;99.90;;;;;;5025681;28;20509;-70
2022/11/10 09:59:46;;;;;;;11.03;6.40;;;13.90;99.90;;;;;;5027550;28;20498;-69
2022/11/10 10:02:30;;;;;;;13.63;6.10;;;13.90;99.90;;;;;;5026813;28;20530;-69
2022/11/10 10:05:18;;;;;;;6.00;4.77;;;13.90;99.90;;;;;;5025042;28;20281;-68
2022/11/10 10:08:06;;;;;;;9.17;4.90;;;13.90;99.90;;;;;;5028257;28;20471;-70
2022/11/10 10:10:48;;;;;;;6.60;4.50;;;13.90;99.90;;;;;;5026721;28;20951;-68
2022/11/10 10:13:35;;;;;;;6.03;3.97;;;13.90;99.90;;;;;;5024864;28;20423;-68
2022/11/10 10:16:19;;;;;;;8.97;4.40;;;13.90;99.90;;;;;;5027805;28;20663;-68
2022/11/10 10:19:33;;;;;;;7.00;4.10;;;13.90;99.90;;;;;;5022462;28;20435;-70
2022/11/10 10:22:34;;;;;;;10.23;5.07;;;14.00;99.90;;;;;;4946305;28;20466;-67
2022/11/10 10:25:07;;;;;;;7.10;4.33;;;13.90;99.90;;;;;;5026585;28;21019;-68
2022/11/10 10:27:37;;;;;;;8.83;3.47;;;14.00;99.90;;;;;;5024196;28;20445;-69
2022/11/10 10:30:12;;;;;;;7.23;4.10;;;14.00;99.90;;;;;;5027959;28;20426;-68
2022/11/10 10:32:38;;;;;;;5.80;3.30;;;14.10;99.90;;;;;;5025225;28;20458;-69
2022/11/10 10:35:04;;;;;;;5.93;3.83;;;14.10;99.90;;;;;;5025063;28;21062;-69
2022/11/10 10:37:54;;;;;;;6.73;3.60;;;14.20;99.90;;;;;;5025292;28;20177;-69
2022/11/10 10:40:22;;;;;;;6.80;3.70;;;14.30;99.90;;;;;;5024498;28;20820;-69
2022/11/10 10:42:48;;;;;;;6.87;3.77;;;14.30;99.90;;;;;;5025436;28;20426;-69
2022/11/10 10:45:21;;;;;;;7.60;3.57;;;14.40;99.90;;;;;;5024155;28;20955;-69
2022/11/10 10:47:53;;;;;;;7.50;3.40;;;14.50;99.90;;;;;;5025053;28;20207;-67
2022/11/10 10:50:28;;;;;;;4.83;3.90;;;14.50;99.90;;;;;;5023759;28;20473;-68
2022/11/10 10:53:20;;;;;;;9.37;3.30;;;14.40;99.90;;;;;;5025646;28;20521;-69
2022/11/10 10:56:06;;;;;;;3.07;2.77;;;14.40;99.90;;;;;;5025988;28;20915;-69
2022/11/10 10:58:55;;;;;;;4.93;2.97;;;14.50;99.90;;;;;;5023357;28;20517;-69
2022/11/10 11:01:30;;;;;;;3.37;2.60;;;14.60;99.90;;;;;;5026490;28;20440;-68
2022/11/10 11:03:57;;;;;;;4.93;2.57;;;14.50;99.90;;;;;;5025596;28;20431;-69
2022/11/10 11:06:26;;;;;;;5.67;2.67;;;14.60;99.90;;;;;;5025632;28;20431;-69
2022/11/10 11:08:51;;;;;;;5.87;2.70;;;14.60;99.90;;;;;;5022985;28;20964;-69
2022/11/10 11:11:17;;;;;;;4.00;2.80;;;14.60;99.90;;;;;;5023295;28;20454;-68
2022/11/10 11:13:43;;;;;;;5.27;2.70;;;14.70;99.90;;;;;;5020473;28;20185;-68
2022/11/10 11:16:11;;;;;;;6.10;2.57;;;14.70;99.90;;;;;;5027680;28;20216;-68
2022/11/10 11:18:38;;;;;;;4.73;2.73;;;14.70;99.90;;;;;;5024627;28;20177;-68
2022/11/10 11:21:09;;;;;;;5.07;2.60;;;14.80;99.90;;;;;;5025769;28;20450;-68
2022/11/10 11:23:40;;;;;;;4.97;2.63;;;14.90;99.90;;;;;;5023568;28;20415;-70
2022/11/10 11:26:22;;;;;;;3.93;2.50;;;14.90;99.90;;;;;;5025980;28;20458;-71
2022/11/10 11:28:52;;;;;;;6.40;2.30;;;15.00;99.90;;;;;;5026935;28;20431;-70
2022/11/10 11:31:29;;;;;;;6.23;2.50;;;15.10;99.90;;;;;;5026276;28;20486;-68
2022/11/10 11:34:13;;;;;;;7.93;2.67;;;15.10;99.90;;;;;;5026332;28;20518;-68
2022/11/10 11:36:41;;;;;;;3.73;2.67;;;15.20;99.90;;;;;;5023155;28;20482;-69
2022/11/10 11:39:39;;;;;;;9.93;3.23;;;15.20;99.90;;;;;;5023656;28;20494;-69
2022/11/10 11:42:22;;;;;;;7.63;2.67;;;15.30;99.90;;;;;;5021363;28;20511;-68
2022/11/10 11:44:57;;;;;;;5.10;2.63;;;15.30;99.90;;;;;;5023791;28;20419;-69
2022/11/10 11:47:41;;;;;;;8.07;2.57;;;15.50;99.90;;;;;;5026192;28;20454;-69
2022/11/10 11:50:29;;;;;;;5.57;2.17;;;15.60;99.90;;;;;;5026081;28;20497;-68
2022/11/10 11:53:27;;;;;;;6.60;2.37;;;15.70;99.90;;;;;;5026226;28;20442;-69
2022/11/10 11:56:02;;;;;;;3.93;2.17;;;15.90;99.90;;;;;;5025503;28;20461;-69
2022/11/10 11:58:43;;;;;;;5.00;2.30;;;16.00;99.90;;;;;;5028335;28;20430;-68
2022/11/10 12:01:26;;;;;;;5.60;2.20;;;16.50;99.90;;;;;;5025083;28;20542;-67
2022/11/10 12:04:13;;;;;;;3.70;2.20;;;17.60;99.90;;;;;;5028325;28;20426;-69
2022/11/10 12:06:44;;;;;;;4.73;2.40;;;18.70;99.90;;;;;;5027932;28;20423;-68
2022/11/10 12:09:18;;;;;;;4.47;2.13;;;19.80;99.90;;;;;;5027094;28;20443;-69
2022/11/10 12:11:55;;;;;;;9.53;4.97;;;20.60;99.90;;;;;;5030909;28;20486;-69
2022/11/10 12:15:02;;;;;;;4.67;2.80;;;21.30;99.90;;;;;;5030098;28;20453;-69
2022/11/10 12:17:41;;;;;;;4.97;3.07;;;22.20;99.90;;;;;;5026048;28;20449;-68
2022/11/10 12:20:31;;;;;;;5.07;2.70;;;22.40;99.90;;;;;;5027572;28;20518;-68
2022/11/10 12:23:22;;;;;;;4.00;2.20;;;22.80;99.90;;;;;;5025255;28;20477;-67
2022/11/10 12:26:09;;;;;;;6.37;3.20;;;22.60;99.90;;;;;;5029058;28;20752;-69
2022/11/10 12:28:52;;;;;;;4.17;2.40;;;23.00;99.90;;;;;;5028950;28;20450;-68
2022/11/10 12:31:22;;;;;;;5.43;2.97;;;23.30;99.90;;;;;;5028003;28;20477;-68
2022/11/10 12:34:00;;;;;;;6.40;2.50;;;23.40;99.90;;;;;;5029161;28;20535;-68
2022/11/10 12:36:28;;;;;;;11.30;2.67;;;23.90;99.90;;;;;;5025738;28;20910;-69
2022/11/10 12:39:03;;;;;;;3.23;2.10;;;24.00;99.90;;;;;;5026945;28;20449;-69
2022/11/10 12:41:38;;;;;;;2.77;2.10;;;23.80;99.90;;;;;;5025043;28;20453;-69
2022/11/10 12:44:46;;;;;;;4.30;2.40;;;23.80;99.90;;;;;;5027068;28;20537;-69
2022/11/10 12:47:17;;;;;;;10.03;3.40;;;23.60;99.90;;;;;;5020983;28;20527;-69
2022/11/10 12:50:15;;;;;;;6.50;2.83;;;23.00;99.90;;;;;;5026123;28;20424;-68
2022/11/10 12:52:53;;;;;;;5.00;2.93;;;23.30;99.90;;;;;;5002526;28;20447;-69
2022/11/10 12:55:26;;;;;;;8.93;3.23;;;22.90;99.90;;;;;;5025969;28;20467;-67
2022/11/10 12:57:51;;;;;;;5.70;2.53;;;22.10;99.90;;;;;;5024477;28;20442;-68
2022/11/10 13:00:25;;;;;;;2.87;2.00;;;21.90;99.90;;;;;;5023744;28;20428;-66
2022/11/10 13:02:54;;;;;;;3.87;2.33;;;21.90;99.90;;;;;;5026140;28;20173;-69
2022/11/10 13:05:37;;;;;;;4.50;2.37;;;21.90;99.90;;;;;;5028842;28;20454;-68
2022/11/10 13:08:21;;;;;;;6.43;2.13;;;21.60;99.90;;;;;;5026940;28;20435;-69
2022/11/10 13:11:01;;;;;;;5.07;2.53;;;21.20;99.90;;;;;;5027945;28;20450;-69